Time;durP1;ratioP1;P1;durP2;ratioP2;P2;SDS_P1;SDS_P2;PMS_P1;PMS_P2;Temp;Humidity;BMP_temperature;BMP_pressure;BME280_temperature;BME280_humidity;BME280_pressure;Samples;Min_cycle;Max_cycle;Signal;HPM_P1;HPM_P2
2022/06/18 00:01:33;;;;;;;1.47;1.17;;;26.30;63.10;;;;;;5015085;28;20813;-88
2022/06/18 00:04:05;;;;;;;1.40;1.30;;;26.30;63.00;;;;;;5015442;28;20575;-87
2022/06/18 00:06:35;;;;;;;1.60;1.30;;;26.30;63.00;;;;;;5015288;28;20454;-88
2022/06/18 00:09:02;;;;;;;2.10;1.20;;;26.30;63.10;;;;;;5015706;28;20514;-88
2022/06/18 00:14:15;;;;;;;1.30;1.17;;;26.30;63.10;;;;;;5000536;28;20527;-88
2022/06/18 00:16:42;;;;;;;1.20;1.10;;;26.30;63.10;;;;;;5015240;28;20484;-88
2022/06/18 00:19:19;;;;;;;1.20;1.10;;;26.30;63.00;;;;;;5015390;28;20522;-88
2022/06/18 00:21:50;;;;;;;1.50;1.40;;;26.30;63.00;;;;;;5015491;28;20524;-87
2022/06/18 00:24:20;;;;;;;1.30;1.20;;;26.30;63.00;;;;;;5014863;28;20578;-88
2022/06/18 00:26:47;;;;;;;1.20;1.10;;;26.30;63.10;;;;;;5014937;28;20534;-88
2022/06/18 00:29:19;;;;;;;1.30;1.20;;;26.30;63.00;;;;;;5015218;28;20479;-88
2022/06/18 00:31:46;;;;;;;1.40;1.30;;;26.30;63.10;;;;;;5015656;28;20459;-88
2022/06/18 00:34:13;;;;;;;1.40;1.30;;;26.30;63.10;;;;;;5014902;28;20444;-88
2022/06/18 00:36:42;;;;;;;1.30;1.20;;;26.30;63.00;;;;;;5014880;28;20816;-89
2022/06/18 00:39:13;;;;;;;1.50;1.40;;;26.30;63.10;;;;;;5015132;28;20530;-91
2022/06/18 00:41:42;;;;;;;1.40;1.30;;;26.30;63.10;;;;;;5013941;28;20535;-88
2022/06/18 00:44:23;;;;;;;1.43;1.33;;;26.30;63.10;;;;;;4997262;28;20479;-88
2022/06/18 00:47:02;;;;;;;1.30;1.13;;;26.40;63.10;;;;;;5014728;28;20509;-88
2022/06/18 00:49:35;;;;;;;1.27;1.17;;;26.40;63.20;;;;;;5014508;28;20446;-88
2022/06/18 00:52:07;;;;;;;1.50;1.40;;;26.30;63.10;;;;;;5014759;28;20428;-88
2022/06/18 00:54:40;;;;;;;2.30;1.27;;;26.30;63.10;;;;;;5014761;28;20427;-87
2022/06/18 00:57:13;;;;;;;1.13;1.03;;;26.30;63.10;;;;;;5014444;28;20539;-88
2022/06/18 00:59:48;;;;;;;1.30;1.20;;;26.30;63.10;;;;;;5014518;28;20472;-88
2022/06/18 01:02:19;;;;;;;1.47;1.37;;;26.30;63.10;;;;;;5014251;28;20475;-88
2022/06/18 01:04:46;;;;;;;1.30;1.20;;;26.30;63.20;;;;;;5014136;28;20498;-88
2022/06/18 01:07:29;;;;;;;1.30;1.20;;;26.30;63.10;;;;;;5014339;28;20474;-88
2022/06/18 01:09:57;;;;;;;1.50;1.40;;;26.30;64.00;;;;;;5014288;28;20435;-88
2022/06/18 01:12:27;;;;;;;1.30;1.20;;;26.30;63.10;;;;;;5014493;28;20439;-88
2022/06/18 01:15:01;;;;;;;1.50;1.40;;;26.30;63.10;;;;;;4997515;28;20534;-89
2022/06/18 01:17:30;;;;;;;1.23;1.13;;;26.30;63.10;;;;;;5014499;28;20533;-88
2022/06/18 01:19:59;;;;;;;1.30;1.20;;;26.30;63.20;;;;;;5014258;28;20475;-88
2022/06/18 01:22:37;;;;;;;1.10;1.00;;;26.30;63.20;;;;;;5014726;28;20448;-88
2022/06/18 01:25:07;;;;;;;1.30;1.20;;;26.30;63.10;;;;;;5014023;28;20483;-93
2022/06/18 01:27:35;;;;;;;1.40;1.20;;;26.30;63.20;;;;;;5014030;28;20447;-88
2022/06/18 01:30:05;;;;;;;1.27;1.17;;;26.30;63.20;;;;;;5014003;28;20464;-88
2022/06/18 01:32:32;;;;;;;1.07;0.97;;;26.30;63.20;;;;;;5014114;28;20840;-88
2022/06/18 01:34:59;;;;;;;1.30;1.20;;;26.30;63.20;;;;;;5014587;28;20526;-88
2022/06/18 01:37:26;;;;;;;1.40;1.30;;;26.30;63.20;;;;;;5014119;28;20443;-88
2022/06/18 01:39:54;;;;;;;1.30;1.20;;;26.30;63.20;;;;;;5013880;28;20490;-88
2022/06/18 01:42:26;;;;;;;1.50;1.30;;;26.30;63.20;;;;;;5013785;28;20449;-88
2022/06/18 01:44:57;;;;;;;1.47;1.37;;;26.30;63.20;;;;;;5013857;28;20490;-88
2022/06/18 01:47:30;;;;;;;1.20;1.10;;;26.30;63.20;;;;;;5013301;28;20463;-88
2022/06/18 01:50:04;;;;;;;1.37;1.27;;;26.30;63.20;;;;;;5013204;28;21017;-88
2022/06/18 01:52:38;;;;;;;1.30;1.20;;;26.30;63.20;;;;;;5013535;28;20533;-88
2022/06/18 01:55:12;;;;;;;1.23;1.13;;;26.30;63.20;;;;;;5014060;28;20451;-88
2022/06/18 01:57:47;;;;;;;1.10;1.00;;;26.30;63.20;;;;;;5014014;28;20519;-88
2022/06/18 02:00:18;;;;;;;1.30;1.10;;;26.30;63.20;;;;;;5013776;28;20459;-87
2022/06/18 02:02:46;;;;;;;1.20;1.10;;;26.30;63.30;;;;;;5013774;28;20565;-90
2022/06/18 02:05:16;;;;;;;1.50;1.40;;;26.30;63.30;;;;;;5013316;28;20996;-88
2022/06/18 02:07:44;;;;;;;2.20;1.70;;;26.30;63.30;;;;;;5013835;28;20915;-88
2022/06/18 02:10:17;;;;;;;1.43;1.33;;;26.30;63.30;;;;;;5013354;28;20475;-88
2022/06/18 02:12:46;;;;;;;1.30;1.10;;;26.30;63.30;;;;;;5013649;28;20545;-88
2022/06/18 02:15:16;;;;;;;1.47;1.37;;;26.30;63.20;;;;;;5013803;28;20560;-89
2022/06/18 02:17:43;;;;;;;1.33;1.23;;;26.30;63.30;;;;;;5013733;28;20444;-89
2022/06/18 02:20:15;;;;;;;2.13;1.40;;;26.30;63.30;;;;;;5013798;28;20872;-88
2022/06/18 02:22:45;;;;;;;1.20;1.10;;;26.30;63.30;;;;;;4996761;28;20444;-87
2022/06/18 02:25:13;;;;;;;1.07;0.97;;;26.30;63.30;;;;;;5013669;28;20578;-89
2022/06/18 02:27:42;;;;;;;1.20;1.10;;;26.30;63.40;;;;;;5013757;28;20482;-88
2022/06/18 02:30:16;;;;;;;1.37;1.27;;;26.30;63.30;;;;;;5013387;28;20543;-88
2022/06/18 02:32:56;;;;;;;1.50;1.40;;;26.30;63.30;;;;;;5013635;28;20530;-88
2022/06/18 02:35:24;;;;;;;1.40;1.20;;;26.30;63.30;;;;;;5013243;28;20542;-88
2022/06/18 02:37:51;;;;;;;1.27;1.17;;;26.30;63.30;;;;;;5013298;28;20535;-88
2022/06/18 02:40:21;;;;;;;1.17;1.07;;;26.30;63.40;;;;;;5013120;28;21115;-88
2022/06/18 02:42:49;;;;;;;1.17;1.07;;;26.30;63.40;;;;;;5014038;28;20536;-88
2022/06/18 02:45:21;;;;;;;1.40;1.30;;;26.30;63.30;;;;;;5013229;28;20518;-88
2022/06/18 02:47:48;;;;;;;1.47;1.17;;;26.30;63.30;;;;;;5013698;28;20506;-94
2022/06/18 02:50:17;;;;;;;1.30;1.20;;;26.30;63.40;;;;;;5013343;28;20526;-88
2022/06/18 02:52:49;;;;;;;1.20;1.10;;;26.30;63.30;;;;;;5013389;28;20515;-88
2022/06/18 02:55:22;;;;;;;1.40;1.30;;;26.30;63.40;;;;;;5013735;28;20562;-89
2022/06/18 02:57:51;;;;;;;1.20;1.10;;;26.30;63.50;;;;;;5013723;28;20435;-88
2022/06/18 03:00:20;;;;;;;1.60;1.47;;;26.30;63.50;;;;;;5012625;28;20466;-94
2022/06/18 03:02:47;;;;;;;1.10;1.00;;;26.30;63.50;;;;;;5013564;28;20468;-94
2022/06/18 03:05:19;;;;;;;1.30;1.20;;;26.30;63.40;;;;;;4997010;28;20583;-88
2022/06/18 03:07:46;;;;;;;1.30;1.20;;;26.30;63.40;;;;;;4997505;28;20829;-94
2022/06/18 03:12:58;;;;;;;1.23;1.13;;;26.30;63.50;;;;;;4997849;28;20404;-95
2022/06/18 03:15:27;;;;;;;1.33;1.23;;;26.30;63.50;;;;;;4997576;28;20857;-88
2022/06/18 03:17:53;;;;;;;1.50;1.40;;;26.30;63.50;;;;;;4997103;28;20483;-89
2022/06/18 03:20:23;;;;;;;1.30;1.20;;;26.30;63.50;;;;;;5006349;28;20486;-94
2022/06/18 03:22:50;;;;;;;1.30;1.20;;;26.30;63.60;;;;;;5016651;28;20483;-94
2022/06/18 03:25:17;;;;;;;1.20;1.10;;;26.30;63.50;;;;;;5016245;28;20574;-89
2022/06/18 03:27:44;;;;;;;1.33;1.23;;;26.30;63.60;;;;;;5016478;28;20466;-88
2022/06/18 03:30:13;;;;;;;1.20;1.10;;;26.30;63.60;;;;;;5016427;28;20510;-95
2022/06/18 03:32:41;;;;;;;1.00;0.90;;;26.30;63.60;;;;;;5016496;28;20944;-87
2022/06/18 03:35:08;;;;;;;1.07;0.97;;;26.30;63.60;;;;;;5015603;28;20476;-88
2022/06/18 03:37:35;;;;;;;2.03;1.20;;;26.30;63.60;;;;;;5016322;28;20539;-88
2022/06/18 03:40:02;;;;;;;1.53;1.43;;;26.30;63.60;;;;;;5016186;28;20443;-88
2022/06/18 03:42:29;;;;;;;1.20;1.10;;;26.30;63.70;;;;;;5016127;28;20538;-88
2022/06/18 03:44:56;;;;;;;1.10;0.97;;;26.30;63.70;;;;;;5015941;28;21072;-88
2022/06/18 03:47:24;;;;;;;1.27;1.17;;;26.30;63.70;;;;;;5015735;28;20482;-87
2022/06/18 03:49:52;;;;;;;1.20;1.10;;;26.30;63.70;;;;;;4996410;28;20523;-92
2022/06/18 03:52:19;;;;;;;1.37;1.27;;;26.30;63.70;;;;;;4996176;28;20480;-88
2022/06/18 03:54:46;;;;;;;1.30;1.20;;;26.30;63.70;;;;;;4996457;28;20446;-87
2022/06/18 03:57:17;;;;;;;1.10;1.00;;;26.30;63.70;;;;;;4996464;28;20528;-88
2022/06/18 03:59:44;;;;;;;1.50;1.07;;;26.30;63.70;;;;;;4996151;28;20570;-88
2022/06/18 04:02:13;;;;;;;1.33;1.23;;;26.30;63.80;;;;;;4996007;28;20479;-95
2022/06/18 04:04:40;;;;;;;1.30;1.20;;;26.30;63.80;;;;;;4996202;28;20436;-95
2022/06/18 04:07:15;;;;;;;1.20;1.10;;;26.30;63.80;;;;;;4996359;28;20451;-88
2022/06/18 04:09:43;;;;;;;1.20;1.10;;;26.30;64.70;;;;;;4996168;28;20480;-88
2022/06/18 04:12:10;;;;;;;1.10;1.00;;;26.30;63.90;;;;;;4996297;28;20584;-87
2022/06/18 04:14:37;;;;;;;1.60;1.50;;;26.30;63.90;;;;;;5013977;28;20993;-94
2022/06/18 04:17:04;;;;;;;1.10;1.00;;;26.30;63.90;;;;;;5015411;28;20846;-90
2022/06/18 04:19:31;;;;;;;1.30;1.20;;;26.30;63.90;;;;;;5015109;28;20444;-88
2022/06/18 04:21:58;;;;;;;1.23;1.13;;;26.30;64.00;;;;;;5015323;28;20440;-88
2022/06/18 04:24:27;;;;;;;1.10;1.00;;;26.30;63.90;;;;;;5014939;28;20506;-88
2022/06/18 04:26:54;;;;;;;1.30;1.20;;;26.30;63.90;;;;;;5015068;28;20518;-88
2022/06/18 04:29:21;;;;;;;1.33;1.23;;;26.30;63.90;;;;;;5014915;28;20978;-94
2022/06/18 04:31:48;;;;;;;1.33;1.23;;;26.30;64.00;;;;;;5015119;28;20444;-90
2022/06/18 04:34:15;;;;;;;1.30;1.20;;;26.30;64.00;;;;;;5015120;28;20535;-88
2022/06/18 04:36:42;;;;;;;1.30;1.20;;;26.30;64.00;;;;;;5015413;28;20533;-87
2022/06/18 04:39:10;;;;;;;1.37;1.27;;;26.30;64.00;;;;;;5016111;28;20880;-88
2022/06/18 04:41:39;;;;;;;1.20;1.10;;;26.30;64.00;;;;;;5015043;28;20543;-88
2022/06/18 04:44:06;;;;;;;1.10;1.00;;;26.30;63.90;;;;;;5014116;28;20500;-88
2022/06/18 04:46:33;;;;;;;1.30;1.20;;;26.30;64.00;;;;;;5014922;28;20994;-94
2022/06/18 04:49:00;;;;;;;1.10;1.00;;;26.30;64.00;;;;;;5014824;28;20587;-88
2022/06/18 04:51:26;;;;;;;1.57;1.47;;;26.30;64.10;;;;;;5014935;28;20455;-88
2022/06/18 04:53:54;;;;;;;1.30;1.20;;;26.30;64.00;;;;;;5014676;28;20539;-88
2022/06/18 04:56:22;;;;;;;1.20;1.10;;;26.30;64.00;;;;;;5014624;28;20479;-88
2022/06/18 04:58:50;;;;;;;1.20;1.10;;;26.30;64.10;;;;;;5014852;28;20451;-88
2022/06/18 05:01:19;;;;;;;1.20;1.10;;;26.30;64.00;;;;;;5014570;28;20569;-88
2022/06/18 05:03:46;;;;;;;1.00;0.90;;;26.30;64.00;;;;;;5014487;28;20463;-88
2022/06/18 05:06:13;;;;;;;1.30;1.20;;;26.30;64.00;;;;;;5014643;28;20510;-88
2022/06/18 05:08:40;;;;;;;1.33;1.23;;;26.30;64.00;;;;;;5014505;28;20493;-94
2022/06/18 05:11:07;;;;;;;2.17;1.20;;;26.30;64.00;;;;;;5014252;28;20534;-88
2022/06/18 05:13:34;;;;;;;1.27;1.17;;;26.30;64.10;;;;;;5013973;28;20443;-88
2022/06/18 05:16:03;;;;;;;1.30;1.20;;;26.30;64.10;;;;;;5014468;28;20479;-88
2022/06/18 05:18:33;;;;;;;1.10;1.00;;;26.30;64.00;;;;;;5014239;28;20469;-88
2022/06/18 05:21:00;;;;;;;1.10;1.00;;;26.30;64.10;;;;;;5014495;28;20866;-94
2022/06/18 05:23:27;;;;;;;1.60;1.33;;;26.30;64.00;;;;;;5014366;28;20448;-88
2022/06/18 05:25:57;;;;;;;1.10;1.00;;;26.30;64.00;;;;;;5013575;28;20476;-88
2022/06/18 05:28:25;;;;;;;1.33;1.23;;;26.30;64.00;;;;;;5014463;28;20458;-88
2022/06/18 05:30:51;;;;;;;1.10;1.00;;;26.30;64.10;;;;;;5014057;28;20495;-93
2022/06/18 05:33:20;;;;;;;1.30;1.20;;;26.30;64.10;;;;;;5014103;28;20479;-88
2022/06/18 05:35:47;;;;;;;1.20;1.07;;;26.30;64.10;;;;;;5014173;28;20555;-94
2022/06/18 05:38:17;;;;;;;1.33;1.23;;;26.30;64.10;;;;;;5013979;28;20538;-89
2022/06/18 05:40:44;;;;;;;1.20;1.10;;;26.30;64.10;;;;;;5014477;28;20478;-94
2022/06/18 05:43:11;;;;;;;1.20;1.10;;;26.30;64.00;;;;;;5014759;28;20858;-95
2022/06/18 05:45:39;;;;;;;1.30;1.20;;;26.30;64.00;;;;;;5014384;28;20522;-88
2022/06/18 05:48:07;;;;;;;1.10;1.00;;;26.30;64.10;;;;;;5015517;28;20478;-88
2022/06/18 05:50:35;;;;;;;1.57;1.47;;;26.30;64.00;;;;;;5014603;28;20448;-94
2022/06/18 05:53:02;;;;;;;1.20;1.10;;;26.30;63.90;;;;;;5015982;28;20506;-92
2022/06/18 05:55:29;;;;;;;1.10;1.00;;;26.30;63.80;;;;;;5014576;28;20518;-90
2022/06/18 05:57:58;;;;;;;1.20;1.00;;;26.30;63.70;;;;;;5014178;28;20435;-88
2022/06/18 06:00:28;;;;;;;1.20;1.10;;;26.30;63.80;;;;;;5013938;28;20491;-89
2022/06/18 06:02:56;;;;;;;1.30;1.20;;;26.30;63.80;;;;;;5013519;28;21002;-88
2022/06/18 06:05:24;;;;;;;1.20;1.10;;;26.30;63.70;;;;;;5013671;28;20439;-88
2022/06/18 06:07:53;;;;;;;1.10;1.00;;;26.30;63.70;;;;;;5014063;28;20475;-88
2022/06/18 06:13:09;;;;;;;1.23;1.13;;;26.30;63.60;;;;;;5014382;28;20403;-88
2022/06/18 06:15:36;;;;;;;1.30;1.20;;;26.30;63.70;;;;;;5013734;28;20443;-93
2022/06/18 06:18:04;;;;;;;1.10;1.00;;;26.30;63.60;;;;;;5015517;28;20546;-94
2022/06/18 06:20:34;;;;;;;1.37;1.10;;;26.30;63.60;;;;;;5014701;28;20518;-88
2022/06/18 06:23:03;;;;;;;1.20;1.10;;;26.40;63.70;;;;;;5013568;28;20444;-88
2022/06/18 06:25:29;;;;;;;1.40;1.30;;;26.30;63.50;;;;;;5013611;28;20486;-89
2022/06/18 06:27:56;;;;;;;1.20;1.10;;;26.30;63.50;;;;;;5013375;28;20453;-89
2022/06/18 06:30:23;;;;;;;1.03;0.93;;;26.30;63.50;;;;;;5013759;28;20468;-91
2022/06/18 06:32:50;;;;;;;1.40;1.30;;;26.30;63.50;;;;;;5012791;28;20523;-87
2022/06/18 06:35:18;;;;;;;1.60;1.50;;;26.30;64.40;;;;;;5013337;28;21062;-90
2022/06/18 06:37:44;;;;;;;1.20;1.10;;;26.30;63.50;;;;;;5013387;28;20534;-88
2022/06/18 06:40:14;;;;;;;1.20;1.10;;;26.30;63.50;;;;;;5016812;28;21066;-88
2022/06/18 06:42:43;;;;;;;1.10;1.00;;;26.30;63.50;;;;;;5017720;28;20534;-87
2022/06/18 06:45:13;;;;;;;1.13;1.03;;;26.30;63.50;;;;;;5017175;28;20526;-94
2022/06/18 06:47:40;;;;;;;1.40;1.30;;;26.30;63.50;;;;;;5017375;28;20483;-88
2022/06/18 06:50:10;;;;;;;1.70;1.60;;;26.30;63.50;;;;;;5016015;28;20478;-90
2022/06/18 06:52:37;;;;;;;1.37;1.27;;;26.40;63.60;;;;;;5001406;28;20480;-93
2022/06/18 06:57:52;;;;;;;1.20;1.10;;;26.30;63.50;;;;;;5017195;28;20430;-88
2022/06/18 07:00:19;;;;;;;1.33;1.23;;;26.30;63.60;;;;;;5016659;28;20547;-88
2022/06/18 07:02:46;;;;;;;1.50;1.40;;;26.30;64.50;;;;;;5016593;28;20582;-86
2022/06/18 07:05:14;;;;;;;1.47;1.37;;;26.30;63.90;;;;;;5016914;28;20542;-87
2022/06/18 07:07:42;;;;;;;1.43;1.20;;;26.30;64.50;;;;;;5017054;28;20567;-89
2022/06/18 07:10:10;;;;;;;1.67;1.50;;;26.30;64.30;;;;;;5016553;28;20475;-88
2022/06/18 07:12:38;;;;;;;1.40;1.30;;;26.40;64.20;;;;;;5016799;28;20494;-88
2022/06/18 07:15:09;;;;;;;2.50;1.60;;;26.40;64.90;;;;;;5016701;28;20498;-92
2022/06/18 07:17:36;;;;;;;1.67;1.30;;;26.40;64.00;;;;;;5016404;28;20471;-88
2022/06/18 07:20:04;;;;;;;1.43;1.33;;;26.30;64.00;;;;;;5016881;28;20527;-87
2022/06/18 07:22:32;;;;;;;1.33;1.20;;;26.30;64.20;;;;;;5016295;28;20951;-93
2022/06/18 07:25:00;;;;;;;1.87;1.77;;;26.40;65.20;;;;;;5016287;28;20879;-86
2022/06/18 07:27:29;;;;;;;2.37;1.50;;;26.30;64.10;;;;;;5016443;28;20577;-93
2022/06/18 07:29:57;;;;;;;1.50;1.40;;;26.40;64.20;;;;;;5016563;28;20467;-87
2022/06/18 07:32:25;;;;;;;2.20;2.00;;;26.40;64.20;;;;;;5016235;28;20447;-87
2022/06/18 07:34:53;;;;;;;1.83;1.50;;;26.40;64.20;;;;;;5015935;28;20531;-87
2022/06/18 07:37:20;;;;;;;1.40;1.30;;;26.30;64.10;;;;;;5016541;28;20532;-94
2022/06/18 07:39:47;;;;;;;2.80;1.70;;;26.30;64.10;;;;;;5016346;28;20448;-87
2022/06/18 07:42:17;;;;;;;1.50;1.40;;;26.40;64.20;;;;;;5016147;28;20467;-87
2022/06/18 07:44:44;;;;;;;1.73;1.40;;;26.40;64.20;;;;;;4996707;28;20837;-87
2022/06/18 07:47:14;;;;;;;1.50;1.40;;;26.40;64.20;;;;;;5005841;28;20586;-87
2022/06/18 07:49:42;;;;;;;1.50;1.40;;;26.40;64.20;;;;;;5015739;28;20490;-87
2022/06/18 07:52:09;;;;;;;1.70;1.60;;;26.40;64.20;;;;;;5016307;28;20535;-90
2022/06/18 07:54:36;;;;;;;1.93;1.60;;;26.40;64.20;;;;;;5015991;28;20490;-90
2022/06/18 07:57:03;;;;;;;1.70;1.60;;;26.40;64.50;;;;;;5015931;28;20482;-89
2022/06/18 07:59:30;;;;;;;1.40;1.30;;;26.40;64.40;;;;;;5016054;28;20487;-89
2022/06/18 08:01:57;;;;;;;1.47;1.37;;;26.40;64.40;;;;;;5015685;28;21097;-86
2022/06/18 08:04:24;;;;;;;1.60;1.50;;;26.40;64.50;;;;;;5011137;28;20472;-87
2022/06/18 08:06:52;;;;;;;1.43;1.30;;;26.40;64.80;;;;;;4996504;28;20579;-88
2022/06/18 08:09:19;;;;;;;2.40;1.60;;;26.40;64.80;;;;;;5015622;28;20443;-89
2022/06/18 08:11:46;;;;;;;1.97;1.70;;;26.40;64.70;;;;;;5015704;28;20479;-92
2022/06/18 08:14:14;;;;;;;2.00;1.80;;;26.40;65.40;;;;;;5016303;28;20440;-91
2022/06/18 08:16:41;;;;;;;1.60;1.50;;;26.40;65.20;;;;;;5016334;28;20854;-92
2022/06/18 08:19:08;;;;;;;4.33;1.47;;;26.40;65.00;;;;;;5015833;28;20459;-94
2022/06/18 08:21:39;;;;;;;3.07;1.70;;;26.40;64.80;;;;;;5015876;28;20547;-93
2022/06/18 08:24:11;;;;;;;1.70;1.60;;;26.40;64.70;;;;;;5016236;28;20463;-92
2022/06/18 08:26:39;;;;;;;3.03;1.90;;;26.40;64.70;;;;;;5015735;28;20503;-92
2022/06/18 08:29:09;;;;;;;1.70;1.60;;;26.40;65.50;;;;;;5015634;28;20471;-93
2022/06/18 08:31:36;;;;;;;1.80;1.70;;;26.50;64.70;;;;;;5015098;28;20491;-88
2022/06/18 08:34:03;;;;;;;3.27;1.90;;;26.40;64.50;;;;;;5014905;28;20939;-86
2022/06/18 08:36:30;;;;;;;4.50;1.67;;;26.40;65.60;;;;;;5026360;28;20468;-86
2022/06/18 08:38:58;;;;;;;2.27;2.07;;;26.40;66.10;;;;;;5031631;28;20436;-87
2022/06/18 08:41:59;;;;;;;2.00;1.83;;;26.40;66.50;;;;;;5032804;28;20463;-83
2022/06/18 08:44:41;;;;;;;2.77;1.93;;;26.40;66.40;;;;;;5005383;28;20527;-86
2022/06/18 08:47:19;;;;;;;2.10;1.90;;;26.40;66.70;;;;;;5014935;28;20510;-87
2022/06/18 08:50:02;;;;;;;1.63;1.53;;;26.40;66.70;;;;;;5014772;28;20539;-87
2022/06/18 08:52:49;;;;;;;2.83;1.90;;;26.30;66.70;;;;;;5014746;28;20443;-87
2022/06/18 08:55:20;;;;;;;2.30;2.13;;;26.30;66.90;;;;;;5014441;28;20479;-87
2022/06/18 08:57:55;;;;;;;1.67;1.57;;;26.40;66.80;;;;;;5014502;28;20446;-87
2022/06/18 09:00:28;;;;;;;1.80;1.70;;;26.40;66.90;;;;;;5014172;28;20804;-87
2022/06/18 09:03:00;;;;;;;2.40;2.20;;;26.40;66.90;;;;;;5013978;28;20499;-88
2022/06/18 09:05:37;;;;;;;1.90;1.80;;;26.40;67.80;;;;;;5014226;28;20527;-87
2022/06/18 09:08:25;;;;;;;1.87;1.77;;;26.40;67.10;;;;;;5014308;28;20529;-90
2022/06/18 09:11:14;;;;;;;1.70;1.40;;;26.40;67.00;;;;;;5014170;28;20447;-87
2022/06/18 09:13:47;;;;;;;2.37;2.17;;;26.30;67.00;;;;;;5016349;28;20485;-86
2022/06/18 09:16:19;;;;;;;2.20;1.70;;;26.40;66.90;;;;;;5026210;28;20534;-89
2022/06/18 09:18:52;;;;;;;1.50;1.40;;;26.40;66.50;;;;;;5024467;28;20427;-86
2022/06/18 09:21:26;;;;;;;2.67;2.00;;;26.40;66.60;;;;;;5014276;28;20471;-86
2022/06/18 09:23:58;;;;;;;2.50;1.70;;;26.40;66.50;;;;;;5012855;28;20436;-86
2022/06/18 09:26:29;;;;;;;1.93;1.80;;;26.40;67.00;;;;;;5013732;28;20559;-89
2022/06/18 09:29:04;;;;;;;4.60;1.70;;;26.40;67.80;;;;;;5017823;28;20855;-87
2022/06/18 09:31:36;;;;;;;1.80;1.70;;;26.40;66.80;;;;;;5024297;28;20449;-86
2022/06/18 09:34:11;;;;;;;1.70;1.60;;;26.40;67.10;;;;;;5025701;28;20546;-91
2022/06/18 09:36:44;;;;;;;2.40;1.80;;;26.40;66.90;;;;;;5008355;28;20435;-86
2022/06/18 09:39:16;;;;;;;2.70;1.60;;;26.40;66.90;;;;;;5012387;28;20476;-85
2022/06/18 09:41:51;;;;;;;2.57;2.07;;;26.40;66.70;;;;;;5016186;28;20415;-87
2022/06/18 09:44:25;;;;;;;1.87;1.77;;;26.40;67.90;;;;;;5017838;28;20526;-92
2022/06/18 09:46:59;;;;;;;1.73;1.63;;;26.40;67.10;;;;;;5016101;28;20561;-87
2022/06/18 09:49:27;;;;;;;1.70;1.60;;;26.40;66.50;;;;;;5010779;28;20475;-89
2022/06/18 09:51:57;;;;;;;2.70;1.60;;;26.40;67.10;;;;;;5016626;28;20797;-88
2022/06/18 09:54:30;;;;;;;1.70;1.60;;;26.40;67.10;;;;;;5020926;28;20961;-92
2022/06/18 09:57:01;;;;;;;2.17;1.60;;;26.40;67.00;;;;;;5033572;28;20446;-92
2022/06/18 10:02:19;;;;;;;2.03;1.60;;;26.50;66.80;;;;;;5035602;28;20469;-92
2022/06/18 10:47:54;;;;;;;3.70;2.10;;;26.40;67.10;;;;;;4987188;28;20490;-81
2022/06/18 10:50:24;;;;;;;3.80;2.37;;;26.40;67.20;;;;;;5015433;28;20510;-81
2022/06/18 10:53:02;;;;;;;4.07;2.30;;;26.50;66.90;;;;;;5016842;28;20480;-86
2022/06/18 10:55:29;;;;;;;2.73;2.10;;;26.50;66.70;;;;;;5015554;28;20486;-82
2022/06/18 10:58:09;;;;;;;3.37;2.20;;;26.50;66.90;;;;;;5016734;28;20475;-91
2022/06/18 11:00:36;;;;;;;3.70;2.50;;;26.60;67.10;;;;;;5017041;28;20466;-90
2022/06/18 11:03:18;;;;;;;5.67;2.30;;;26.50;67.00;;;;;;5017593;28;20471;-90
2022/06/18 11:05:47;;;;;;;3.53;3.00;;;26.50;67.00;;;;;;5020254;28;20501;-87
2022/06/18 11:08:24;;;;;;;3.00;2.20;;;26.50;67.40;;;;;;5022179;28;20511;-90
2022/06/18 11:10:54;;;;;;;3.60;2.30;;;26.60;67.40;;;;;;4999965;28;20978;-87
2022/06/18 11:13:26;;;;;;;2.53;2.20;;;26.60;67.40;;;;;;5018774;28;20526;-90
2022/06/18 11:16:05;;;;;;;3.00;2.70;;;26.50;67.30;;;;;;5017810;28;20911;-89
2022/06/18 11:18:43;;;;;;;2.27;2.00;;;26.60;67.20;;;;;;5018365;28;20515;-92
2022/06/18 11:21:18;;;;;;;3.17;2.73;;;26.50;67.20;;;;;;5028557;28;20449;-87
2022/06/18 11:23:52;;;;;;;2.83;2.40;;;26.60;67.30;;;;;;5013278;28;20959;-91
2022/06/18 11:26:22;;;;;;;3.00;2.03;;;26.50;67.30;;;;;;5016129;28;20953;-91
2022/06/18 11:28:52;;;;;;;2.47;2.27;;;26.60;67.20;;;;;;5008386;28;20498;-91
2022/06/18 11:31:27;;;;;;;4.07;2.60;;;26.60;67.10;;;;;;5022348;28;20964;-87
2022/06/18 11:34:01;;;;;;;3.27;2.23;;;26.60;67.40;;;;;;5021165;28;20536;-93
2022/06/18 11:36:46;;;;;;;3.60;2.30;;;26.60;67.20;;;;;;5027616;28;20434;-83
2022/06/18 11:39:32;;;;;;;3.40;2.70;;;26.70;67.10;;;;;;5036413;28;20533;-94
2022/06/18 11:42:06;;;;;;;2.37;2.17;;;26.70;67.40;;;;;;5035902;28;20449;-90
2022/06/18 11:44:39;;;;;;;2.70;2.50;;;26.60;67.30;;;;;;5031715;28;20482;-93
2022/06/18 11:47:13;;;;;;;3.43;2.43;;;26.70;67.20;;;;;;5028708;28;20438;-85
2022/06/18 11:49:48;;;;;;;2.70;2.50;;;26.70;67.20;;;;;;5024307;28;20546;-85
2022/06/18 11:52:21;;;;;;;3.73;2.40;;;26.70;67.10;;;;;;5016520;28;20538;-83
2022/06/18 11:54:58;;;;;;;3.33;2.60;;;26.70;67.00;;;;;;5016091;28;20534;-84
2022/06/18 11:57:31;;;;;;;4.43;2.63;;;26.70;67.00;;;;;;5015870;28;20435;-85
2022/06/18 12:00:10;;;;;;;2.77;2.33;;;26.70;67.00;;;;;;5016100;28;20471;-87
2022/06/18 12:02:50;;;;;;;3.10;2.77;;;26.70;67.00;;;;;;5016622;28;20467;-94
2022/06/18 12:05:27;;;;;;;9.37;2.77;;;26.70;67.00;;;;;;5012336;28;20518;-86
2022/06/18 12:50:36;;;;;;;7.33;2.50;;;26.70;67.40;;;;;;4983679;28;20534;-84
2022/06/18 12:53:17;;;;;;;4.40;2.80;;;26.60;67.50;;;;;;4980295;28;20813;-84
2022/06/18 12:59:17;;;;;;;2.57;2.37;;;26.70;67.40;;;;;;5018135;28;20931;-87
2022/06/18 13:08:46;;;;;;;4.60;2.13;;;26.70;68.10;;;;;;5001305;28;20547;-89
2022/06/18 13:11:19;;;;;;;2.90;2.30;;;26.70;68.20;;;;;;4998931;28;20456;-93
2022/06/18 13:13:58;;;;;;;2.63;2.43;;;26.70;68.20;;;;;;4995436;28;20425;-90
2022/06/18 13:16:31;;;;;;;2.90;2.20;;;26.70;68.00;;;;;;4995243;28;20479;-92
2022/06/18 13:19:08;;;;;;;4.93;2.70;;;26.70;67.90;;;;;;5008571;28;20510;-94
